Time;durP1;ratioP1;P1;durP2;ratioP2;P2;SDS_P1;SDS_P2;PMS_P1;PMS_P2;Temp;Humidity;BMP_temperature;BMP_pressure;BME280_temperature;BME280_humidity;BME280_pressure;Samples;Min_cycle;Max_cycle;Signal;HPM_P1;HPM_P2
2023/10/23 00:00:48;;;;;;;1.90;1.38;;;;;;;;;;4999121;28;20026;-43
2023/10/23 00:03:13;;;;;;;1.88;0.93;;;;;;;;;;4999319;28;20057;-42
2023/10/23 00:05:38;;;;;;;2.67;1.90;;;;;;;;;;4996035;28;20026;-44
2023/10/23 00:08:04;;;;;;;2.00;0.68;;;;;;;;;;4997249;28;20039;-45
2023/10/23 00:10:29;;;;;;;1.50;1.45;;;;;;;;;;5000424;28;20053;-42
2023/10/23 00:12:55;;;;;;;1.20;0.90;;;;;;;;;;4998246;28;20045;-43
2023/10/23 00:15:20;;;;;;;0.95;0.63;;;;;;;;;;4997500;28;20031;-43
2023/10/23 00:17:46;;;;;;;1.48;1.30;;;;;;;;;;4998673;28;20035;-41
2023/10/23 00:20:12;;;;;;;1.98;1.77;;;;;;;;;;4999506;28;20019;-46
2023/10/23 00:22:37;;;;;;;1.75;1.52;;;;;;;;;;4994286;28;20045;-42
2023/10/23 00:25:03;;;;;;;1.38;1.05;;;;;;;;;;4979699;28;20022;-44
2023/10/23 00:27:28;;;;;;;1.85;1.75;;;;;;;;;;4993718;28;20041;-44
2023/10/23 00:29:53;;;;;;;1.15;0.40;;;;;;;;;;4990101;28;20181;-42
2023/10/23 00:32:19;;;;;;;3.42;1.15;;;;;;;;;;4991570;28;20061;-45
2023/10/23 00:34:44;;;;;;;1.58;1.50;;;;;;;;;;4985366;28;20023;-41
2023/10/23 00:37:10;;;;;;;1.08;0.68;;;;;;;;;;4993951;28;20038;-43
2023/10/23 00:39:35;;;;;;;1.58;1.40;;;;;;;;;;4995216;28;20074;-44
2023/10/23 00:42:01;;;;;;;4.30;1.88;;;;;;;;;;4993635;28;20038;-45
2023/10/23 00:44:27;;;;;;;1.85;1.60;;;;;;;;;;5000906;28;20555;-43
2023/10/23 00:46:53;;;;;;;2.83;2.72;;;;;;;;;;4992924;28;20049;-44
2023/10/23 00:49:19;;;;;;;4.38;2.47;;;;;;;;;;4999552;28;20034;-42
2023/10/23 00:51:45;;;;;;;0.93;0.50;;;;;;;;;;5000524;28;20416;-41
2023/10/23 00:54:11;;;;;;;1.75;1.65;;;;;;;;;;4993865;28;20054;-45
2023/10/23 00:56:37;;;;;;;1.88;1.60;;;;;;;;;;4992898;28;20073;-44
2023/10/23 00:59:03;;;;;;;2.70;1.73;;;;;;;;;;4997942;28;20041;-41
2023/10/23 01:01:31;;;;;;;1.50;1.40;;;;;;;;;;4997676;28;20487;-42
2023/10/23 01:03:59;;;;;;;2.20;0.93;;;;;;;;;;4996510;28;20132;-44
2023/10/23 01:06:25;;;;;;;2.03;1.17;;;;;;;;;;4993896;28;20046;-45
2023/10/23 01:08:50;;;;;;;1.40;1.25;;;;;;;;;;4998020;28;20057;-44
2023/10/23 01:11:16;;;;;;;2.67;2.58;;;;;;;;;;4996375;28;20463;-41
2023/10/23 01:13:41;;;;;;;1.58;1.48;;;;;;;;;;4995743;28;20069;-42
2023/10/23 01:16:07;;;;;;;1.75;0.68;;;;;;;;;;4995183;28;20041;-44
2023/10/23 01:18:32;;;;;;;1.40;1.30;;;;;;;;;;5001876;28;20042;-42
2023/10/23 01:20:58;;;;;;;1.67;1.58;;;;;;;;;;5001290;28;20038;-43
2023/10/23 01:23:36;;;;;;;2.33;2.13;;;;;;;;;;4996773;28;20041;-45
2023/10/23 01:26:01;;;;;;;1.90;1.73;;;;;;;;;;4995613;28;20476;-42
2023/10/23 01:28:27;;;;;;;1.95;1.60;;;;;;;;;;4993546;28;20038;-46
2023/10/23 01:30:52;;;;;;;2.05;1.95;;;;;;;;;;4997755;28;20110;-45
2023/10/23 01:33:18;;;;;;;3.30;1.45;;;;;;;;;;4996089;28;20504;-44
2023/10/23 01:35:43;;;;;;;1.48;0.55;;;;;;;;;;4993787;28;20480;-44
2023/10/23 01:38:09;;;;;;;2.97;0.82;;;;;;;;;;4991354;28;20503;-45
2023/10/23 01:40:35;;;;;;;2.83;0.95;;;;;;;;;;4996077;28;20077;-41
2023/10/23 01:43:00;;;;;;;3.75;3.42;;;;;;;;;;4994602;28;20122;-46
2023/10/23 01:45:26;;;;;;;2.67;1.38;;;;;;;;;;4995930;28;20062;-40
2023/10/23 01:47:51;;;;;;;2.58;2.47;;;;;;;;;;4987117;28;20038;-46
2023/10/23 01:50:17;;;;;;;2.05;0.93;;;;;;;;;;4998033;28;20034;-46
2023/10/23 01:52:44;;;;;;;2.95;2.65;;;;;;;;;;4988748;28;20030;-45
2023/10/23 01:55:11;;;;;;;1.15;0.52;;;;;;;;;;4996223;28;20504;-43
2023/10/23 01:57:36;;;;;;;1.35;1.23;;;;;;;;;;4995407;28;20089;-43
2023/10/23 02:00:05;;;;;;;2.75;1.48;;;;;;;;;;4992585;28;20038;-49
2023/10/23 02:02:33;;;;;;;1.40;1.15;;;;;;;;;;5022444;28;20113;-41
2023/10/23 02:04:59;;;;;;;3.40;1.23;;;;;;;;;;4994496;28;20022;-43
2023/10/23 02:07:26;;;;;;;2.28;0.82;;;;;;;;;;4996771;28;20045;-44
2023/10/23 02:09:52;;;;;;;2.78;1.30;;;;;;;;;;4994388;28;20038;-42
2023/10/23 02:12:18;;;;;;;1.60;1.38;;;;;;;;;;4988787;28;20038;-45
2023/10/23 02:14:43;;;;;;;1.55;1.45;;;;;;;;;;4987036;28;20060;-44
2023/10/23 02:17:09;;;;;;;3.80;1.45;;;;;;;;;;4988261;28;20492;-43
2023/10/23 02:19:34;;;;;;;0.93;0.90;;;;;;;;;;4990657;28;20484;-42
2023/10/23 02:22:00;;;;;;;1.00;0.30;;;;;;;;;;4996170;28;20377;-42
2023/10/23 02:24:25;;;;;;;3.83;1.15;;;;;;;;;;4990677;28;20057;-44
2023/10/23 02:26:51;;;;;;;2.75;1.65;;;;;;;;;;4986580;28;20121;-43
2023/10/23 02:29:17;;;;;;;2.47;2.38;;;;;;;;;;5004086;28;20031;-46
2023/10/23 02:31:42;;;;;;;3.33;0.25;;;;;;;;;;4991113;28;20646;-42
2023/10/23 02:34:08;;;;;;;1.40;1.23;;;;;;;;;;5005866;28;20041;-46
2023/10/23 02:36:33;;;;;;;2.60;1.67;;;;;;;;;;4991914;28;20085;-42
2023/10/23 02:38:59;;;;;;;2.47;2.38;;;;;;;;;;4995183;28;20061;-46
2023/10/23 02:41:25;;;;;;;1.75;1.38;;;;;;;;;;4994086;28;20030;-43
2023/10/23 02:43:50;;;;;;;3.70;1.38;;;;;;;;;;4992297;28;20026;-43
2023/10/23 02:46:16;;;;;;;1.45;1.08;;;;;;;;;;4994131;28;20026;-43
2023/10/23 02:48:42;;;;;;;1.60;1.20;;;;;;;;;;4988948;28;20035;-43
2023/10/23 02:51:08;;;;;;;1.92;1.23;;;;;;;;;;4995519;28;20026;-41
2023/10/23 02:53:34;;;;;;;1.95;1.85;;;;;;;;;;4993319;28;20530;-42
2023/10/23 02:55:59;;;;;;;3.47;1.70;;;;;;;;;;5005990;28;20040;-45
2023/10/23 02:58:24;;;;;;;3.42;1.75;;;;;;;;;;4992297;28;20089;-41
2023/10/23 03:00:50;;;;;;;1.60;1.50;;;;;;;;;;4985398;28;20022;-41
2023/10/23 03:03:15;;;;;;;3.05;2.85;;;;;;;;;;4994580;28;20041;-42
2023/10/23 03:05:41;;;;;;;0.95;0.50;;;;;;;;;;4995713;28;20396;-43
2023/10/23 03:08:06;;;;;;;3.25;2.22;;;;;;;;;;4995207;28;20069;-42
2023/10/23 03:10:32;;;;;;;1.40;1.02;;;;;;;;;;4994202;28;20048;-41
2023/10/23 03:12:58;;;;;;;2.55;2.40;;;;;;;;;;4992523;28;20069;-47
2023/10/23 03:15:23;;;;;;;1.65;1.35;;;;;;;;;;4992126;28;20053;-44
2023/10/23 03:17:49;;;;;;;2.70;2.58;;;;;;;;;;4996531;28;20042;-43
2023/10/23 03:20:15;;;;;;;2.17;1.98;;;;;;;;;;4996900;28;20073;-45
2023/10/23 03:22:40;;;;;;;1.85;1.75;;;;;;;;;;5007860;28;20049;-42
2023/10/23 03:25:07;;;;;;;1.00;0.77;;;;;;;;;;4993467;28;20049;-43
2023/10/23 03:27:33;;;;;;;2.20;1.85;;;;;;;;;;4994172;28;20048;-44
2023/10/23 03:29:59;;;;;;;2.25;0.63;;;;;;;;;;4989977;28;20035;-42
2023/10/23 03:32:24;;;;;;;3.53;0.65;;;;;;;;;;4986411;28;20064;-42
2023/10/23 03:34:50;;;;;;;1.67;1.17;;;;;;;;;;4989629;28;20034;-41
2023/10/23 03:37:16;;;;;;;1.83;1.73;;;;;;;;;;4993553;28;20038;-42
2023/10/23 03:39:41;;;;;;;1.85;1.55;;;;;;;;;;4988244;28;20181;-43
2023/10/23 03:42:08;;;;;;;1.92;1.83;;;;;;;;;;4994372;28;20436;-46
2023/10/23 03:44:33;;;;;;;2.08;1.15;;;;;;;;;;4997667;28;20089;-44
2023/10/23 03:46:59;;;;;;;1.77;0.57;;;;;;;;;;4993023;28;20121;-46
2023/10/23 03:49:24;;;;;;;1.00;0.80;;;;;;;;;;4999389;28;20022;-45
2023/10/23 03:51:50;;;;;;;2.45;0.93;;;;;;;;;;4996072;28;20041;-47
2023/10/23 03:54:15;;;;;;;1.70;1.30;;;;;;;;;;4998897;28;20057;-44
2023/10/23 03:56:40;;;;;;;1.33;0.43;;;;;;;;;;4987585;28;20053;-43
2023/10/23 03:59:06;;;;;;;2.22;1.40;;;;;;;;;;4999124;28;20034;-41
2023/10/23 04:01:31;;;;;;;2.22;2.00;;;;;;;;;;4993136;28;20022;-42
2023/10/23 04:03:57;;;;;;;1.65;0.77;;;;;;;;;;4999212;28;20635;-42
2023/10/23 04:06:22;;;;;;;3.55;1.45;;;;;;;;;;4995704;28;20069;-46
2023/10/23 04:08:51;;;;;;;2.33;1.00;;;;;;;;;;4992629;28;20022;-41
2023/10/23 04:11:16;;;;;;;1.33;1.25;;;;;;;;;;5001910;28;20472;-41
2023/10/23 04:13:42;;;;;;;1.33;0.90;;;;;;;;;;4997121;28;20193;-42
2023/10/23 04:16:07;;;;;;;1.55;1.30;;;;;;;;;;4999059;28;20027;-43
2023/10/23 04:18:33;;;;;;;4.65;1.70;;;;;;;;;;4992634;28;20046;-44
2023/10/23 04:21:05;;;;;;;3.90;0.52;;;;;;;;;;4994505;28;21016;-41
2023/10/23 04:23:31;;;;;;;1.70;1.30;;;;;;;;;;4998665;28;20381;-44
2023/10/23 04:25:57;;;;;;;2.03;0.75;;;;;;;;;;4992039;28;20080;-47
2023/10/23 04:28:22;;;;;;;4.60;2.08;;;;;;;;;;4999901;28;20042;-41
2023/10/23 04:30:48;;;;;;;3.47;0.40;;;;;;;;;;4998086;28;20814;-43
2023/10/23 04:33:16;;;;;;;1.33;1.23;;;;;;;;;;4993932;28;20121;-44
2023/10/23 04:35:41;;;;;;;2.15;1.05;;;;;;;;;;4998460;28;20026;-43
2023/10/23 04:38:07;;;;;;;2.47;2.28;;;;;;;;;;5000873;28;20141;-46
2023/10/23 04:40:32;;;;;;;1.75;1.60;;;;;;;;;;4993798;28;20056;-43
2023/10/23 04:42:57;;;;;;;1.98;1.88;;;;;;;;;;5000343;28;20054;-41
2023/10/23 04:45:23;;;;;;;1.48;1.38;;;;;;;;;;4998789;28;20030;-46
2023/10/23 04:47:48;;;;;;;1.17;1.05;;;;;;;;;;4992657;28;20042;-45
2023/10/23 04:50:14;;;;;;;1.48;1.35;;;;;;;;;;5009390;28;20125;-44
2023/10/23 04:52:39;;;;;;;1.08;0.98;;;;;;;;;;4997598;28;20038;-45
2023/10/23 04:55:05;;;;;;;1.58;0.70;;;;;;;;;;4991737;28;20026;-41
2023/10/23 04:57:31;;;;;;;1.35;0.63;;;;;;;;;;4984400;28;20034;-43
2023/10/23 04:59:56;;;;;;;2.67;1.83;;;;;;;;;;4991263;28;20030;-45
2023/10/23 05:02:22;;;;;;;1.75;1.58;;;;;;;;;;4991966;28;20070;-43
2023/10/23 05:04:48;;;;;;;1.80;1.38;;;;;;;;;;5020049;28;20038;-45
2023/10/23 05:07:14;;;;;;;1.88;1.05;;;;;;;;;;4983236;28;20046;-42
2023/10/23 05:09:40;;;;;;;0.73;0.73;;;;;;;;;;4987473;28;20113;-44
2023/10/23 05:12:06;;;;;;;1.27;0.88;;;;;;;;;;5001886;28;20078;-42
2023/10/23 05:14:31;;;;;;;2.22;0.90;;;;;;;;;;4995895;28;20044;-44
2023/10/23 05:16:57;;;;;;;2.85;1.08;;;;;;;;;;4985458;28;20042;-41
2023/10/23 05:19:22;;;;;;;3.65;1.33;;;;;;;;;;4985157;28;20045;-43
2023/10/23 05:21:47;;;;;;;5.53;1.65;;;;;;;;;;4986276;28;20130;-45
2023/10/23 05:24:13;;;;;;;3.25;3.05;;;;;;;;;;4984319;28;20053;-46
2023/10/23 05:26:38;;;;;;;1.70;1.45;;;;;;;;;;4989723;28;20107;-42
2023/10/23 05:29:04;;;;;;;1.05;0.98;;;;;;;;;;4991363;28;20061;-45
2023/10/23 05:31:29;;;;;;;2.30;0.80;;;;;;;;;;4990380;28;20137;-42
2023/10/23 05:33:54;;;;;;;2.70;0.80;;;;;;;;;;4993544;28;20134;-46
2023/10/23 05:36:20;;;;;;;1.17;1.13;;;;;;;;;;4989012;28;20034;-41
2023/10/23 05:38:45;;;;;;;2.90;1.38;;;;;;;;;;4988237;28;20045;-43
2023/10/23 05:41:11;;;;;;;2.95;0.82;;;;;;;;;;4986516;28;20473;-44
2023/10/23 05:43:36;;;;;;;1.48;0.85;;;;;;;;;;4989082;28;20136;-44
2023/10/23 05:46:05;;;;;;;1.15;1.00;;;;;;;;;;4993883;28;20034;-41
2023/10/23 05:48:31;;;;;;;1.33;1.05;;;;;;;;;;4987470;28;20512;-43
2023/10/23 05:51:02;;;;;;;4.43;2.10;;;;;;;;;;4993488;28;20041;-44
2023/10/23 05:53:27;;;;;;;2.40;1.42;;;;;;;;;;4992649;28;20062;-44
2023/10/23 05:55:53;;;;;;;1.17;0.73;;;;;;;;;;4982135;28;20031;-42
2023/10/23 05:58:19;;;;;;;1.75;1.50;;;;;;;;;;4980850;28;20039;-43
2023/10/23 06:00:44;;;;;;;0.95;0.75;;;;;;;;;;4984873;28;20018;-44
2023/10/23 06:03:10;;;;;;;2.08;1.40;;;;;;;;;;4984088;28;20089;-47
2023/10/23 06:05:42;;;;;;;2.22;0.88;;;;;;;;;;4989833;28;20080;-42
2023/10/23 06:08:08;;;;;;;0.77;0.77;;;;;;;;;;4991617;28;20105;-47
2023/10/23 06:10:43;;;;;;;1.52;0.63;;;;;;;;;;4996492;28;20026;-44
2023/10/23 06:13:09;;;;;;;3.22;0.93;;;;;;;;;;4997981;28;20045;-46
2023/10/23 06:15:34;;;;;;;3.15;0.85;;;;;;;;;;5002692;28;20030;-42
2023/10/23 06:18:01;;;;;;;2.08;0.35;;;;;;;;;;4997319;28;20503;-47
2023/10/23 06:20:27;;;;;;;1.55;1.17;;;;;;;;;;4995363;28;20026;-42
2023/10/23 06:22:52;;;;;;;3.83;0.25;;;;;;;;;;4991792;28;20405;-46
2023/10/23 06:25:18;;;;;;;4.18;0.77;;;;;;;;;;4994608;28;20747;-44
2023/10/23 06:27:43;;;;;;;2.22;2.03;;;;;;;;;;4994116;28;20042;-48
2023/10/23 06:30:09;;;;;;;3.45;0.70;;;;;;;;;;4996932;28;20101;-45
2023/10/23 06:32:34;;;;;;;2.70;1.40;;;;;;;;;;4989814;28;20050;-43
2023/10/23 06:35:00;;;;;;;1.48;0.95;;;;;;;;;;4993392;28;20109;-49
2023/10/23 06:37:25;;;;;;;1.67;0.95;;;;;;;;;;4985612;28;20125;-43
2023/10/23 06:39:51;;;;;;;2.67;1.40;;;;;;;;;;4992037;28;20092;-42
2023/10/23 06:42:16;;;;;;;1.63;1.15;;;;;;;;;;4991529;28;20074;-43
2023/10/23 06:44:42;;;;;;;2.00;0.10;;;;;;;;;;4992875;28;20579;-44
2023/10/23 06:47:07;;;;;;;2.40;0.95;;;;;;;;;;4990161;28;20046;-45
2023/10/23 06:49:33;;;;;;;4.05;1.08;;;;;;;;;;4994025;28;20018;-45
2023/10/23 06:51:59;;;;;;;1.80;1.55;;;;;;;;;;4987117;28;20062;-47
2023/10/23 06:54:26;;;;;;;3.58;1.40;;;;;;;;;;4987599;28;20027;-44
2023/10/23 06:56:52;;;;;;;1.88;0.80;;;;;;;;;;5000752;28;20049;-45
2023/10/23 06:59:18;;;;;;;2.03;1.17;;;;;;;;;;4985542;28;20113;-44
2023/10/23 07:01:43;;;;;;;0.90;0.57;;;;;;;;;;4995691;28;20038;-43
2023/10/23 07:04:08;;;;;;;1.95;0.10;;;;;;;;;;4989813;28;20443;-48
2023/10/23 07:06:34;;;;;;;3.38;1.30;;;;;;;;;;4990231;28;20118;-43
2023/10/23 07:08:59;;;;;;;2.63;1.10;;;;;;;;;;4995763;28;20034;-46
2023/10/23 07:11:24;;;;;;;2.55;0.57;;;;;;;;;;4992924;28;20041;-41
2023/10/23 07:13:50;;;;;;;2.90;1.35;;;;;;;;;;4989355;28;20041;-43
2023/10/23 07:16:16;;;;;;;2.35;1.27;;;;;;;;;;4996619;28;20121;-45
2023/10/23 07:18:41;;;;;;;4.63;1.65;;;;;;;;;;4993267;28;20046;-44
2023/10/23 07:21:07;;;;;;;1.00;0.82;;;;;;;;;;4988392;28;20035;-44
2023/10/23 07:23:33;;;;;;;3.05;0.93;;;;;;;;;;5000914;28;20035;-44
2023/10/23 07:26:00;;;;;;;4.97;2.28;;;;;;;;;;4999119;28;20029;-43
2023/10/23 07:28:25;;;;;;;3.85;1.55;;;;;;;;;;4998311;28;20046;-45
2023/10/23 07:30:50;;;;;;;1.95;1.42;;;;;;;;;;4997294;28;20030;-45
2023/10/23 07:33:16;;;;;;;3.53;1.02;;;;;;;;;;4996228;28;20083;-44
2023/10/23 07:35:41;;;;;;;1.38;0.95;;;;;;;;;;5003657;28;20030;-44
2023/10/23 07:38:06;;;;;;;7.38;0.95;;;;;;;;;;4995476;28;20042;-44
2023/10/23 07:40:32;;;;;;;1.73;0.70;;;;;;;;;;4996213;28;20042;-42
2023/10/23 07:42:57;;;;;;;1.23;1.13;;;;;;;;;;5000127;28;20039;-44
2023/10/23 07:45:23;;;;;;;1.85;1.10;;;;;;;;;;4999379;28;20104;-42
2023/10/23 07:47:48;;;;;;;2.25;1.63;;;;;;;;;;4993217;28;20076;-48
2023/10/23 07:50:14;;;;;;;1.52;1.35;;;;;;;;;;5002839;28;20030;-46
2023/10/23 07:52:39;;;;;;;4.40;1.67;;;;;;;;;;4988786;28;20129;-43
2023/10/23 07:55:05;;;;;;;2.72;1.52;;;;;;;;;;4996424;28;20034;-43
2023/10/23 07:57:31;;;;;;;2.13;1.05;;;;;;;;;;4997017;28;20045;-48
2023/10/23 07:59:56;;;;;;;2.55;1.27;;;;;;;;;;4996467;28;20114;-47
2023/10/23 08:02:21;;;;;;;2.08;1.58;;;;;;;;;;4994106;28;20130;-45
2023/10/23 08:04:47;;;;;;;1.15;0.98;;;;;;;;;;4992971;28;20057;-41
2023/10/23 08:07:13;;;;;;;1.58;0.60;;;;;;;;;;4991272;28;20392;-45
2023/10/23 08:09:38;;;;;;;1.45;1.10;;;;;;;;;;4992403;28;20026;-45
2023/10/23 08:12:04;;;;;;;3.45;1.38;;;;;;;;;;4992105;28;20034;-43
2023/10/23 08:14:29;;;;;;;1.73;0.98;;;;;;;;;;4990763;28;20038;-45
2023/10/23 08:16:55;;;;;;;2.03;1.90;;;;;;;;;;4982678;28;20042;-44
2023/10/23 08:19:20;;;;;;;2.50;2.03;;;;;;;;;;5003565;28;20062;-45
2023/10/23 08:21:46;;;;;;;4.07;1.35;;;;;;;;;;4998132;28;20041;-44
2023/10/23 08:24:11;;;;;;;2.58;2.08;;;;;;;;;;4995681;28;20030;-44
2023/10/23 08:26:38;;;;;;;2.88;2.30;;;;;;;;;;4983172;28;20059;-43
2023/10/23 08:29:03;;;;;;;2.45;0.80;;;;;;;;;;4992789;28;20058;-46
2023/10/23 08:31:29;;;;;;;2.38;1.15;;;;;;;;;;4991836;28;20018;-43
2023/10/23 08:33:54;;;;;;;4.82;1.92;;;;;;;;;;4989414;28;20516;-43
2023/10/23 08:36:19;;;;;;;3.17;2.90;;;;;;;;;;4990593;28;20022;-46
2023/10/23 08:38:45;;;;;;;3.03;1.55;;;;;;;;;;4991160;28;20022;-45
2023/10/23 08:41:12;;;;;;;3.90;2.75;;;;;;;;;;4985329;28;20045;-42
2023/10/23 08:43:40;;;;;;;4.10;1.48;;;;;;;;;;4987888;28;20039;-42
2023/10/23 08:46:05;;;;;;;3.85;3.55;;;;;;;;;;4987113;28;20030;-45
2023/10/23 08:48:31;;;;;;;3.13;1.48;;;;;;;;;;4993006;28;20038;-43
2023/10/23 08:50:58;;;;;;;2.08;1.30;;;;;;;;;;4993853;28;20058;-44
2023/10/23 08:53:31;;;;;;;3.15;1.40;;;;;;;;;;4986863;28;20042;-45
2023/10/23 08:55:59;;;;;;;3.95;2.42;;;;;;;;;;4990966;28;20065;-42
2023/10/23 08:58:26;;;;;;;2.90;0.40;;;;;;;;;;4983719;28;20455;-44
2023/10/23 09:00:51;;;;;;;5.20;2.47;;;;;;;;;;4987966;28;20027;-41
2023/10/23 09:03:18;;;;;;;3.50;1.63;;;;;;;;;;4991774;28;20100;-45
2023/10/23 09:05:44;;;;;;;6.22;2.00;;;;;;;;;;4995681;28;20077;-45
2023/10/23 09:08:10;;;;;;;3.35;0.88;;;;;;;;;;4992817;28;20050;-44
2023/10/23 09:11:03;;;;;;;4.00;1.83;;;;;;;;;;4999284;28;20084;-45
2023/10/23 09:13:37;;;;;;;4.00;1.73;;;;;;;;;;4998285;28;20038;-41
2023/10/23 09:16:07;;;;;;;3.83;1.70;;;;;;;;;;4998320;28;20034;-44
2023/10/23 09:18:33;;;;;;;2.97;1.20;;;;;;;;;;4986745;28;20058;-44
2023/10/23 09:20:59;;;;;;;4.43;1.77;;;;;;;;;;4990031;28;20105;-44
2023/10/23 09:23:25;;;;;;;3.92;3.00;;;;;;;;;;4991473;28;20120;-44
2023/10/23 09:25:56;;;;;;;2.15;1.80;;;;;;;;;;4999538;28;20029;-42
2023/10/23 09:28:22;;;;;;;5.65;1.73;;;;;;;;;;4992533;28;20114;-43
2023/10/23 09:30:48;;;;;;;3.88;0.63;;;;;;;;;;4991512;28;20460;-46
2023/10/23 09:33:14;;;;;;;4.25;1.45;;;;;;;;;;4991886;28;20395;-49
2023/10/23 09:35:40;;;;;;;3.90;1.98;;;;;;;;;;4990708;28;20500;-43
2023/10/23 09:38:12;;;;;;;2.67;1.83;;;;;;;;;;4989385;28;20038;-43
2023/10/23 09:40:38;;;;;;;3.90;2.15;;;;;;;;;;4997365;28;20042;-44
2023/10/23 09:43:06;;;;;;;3.35;0.90;;;;;;;;;;4989887;28;20043;-44
2023/10/23 09:45:31;;;;;;;2.90;0.88;;;;;;;;;;4990203;28;20362;-44
2023/10/23 09:47:59;;;;;;;7.15;3.72;;;;;;;;;;4993305;28;20041;-43
2023/10/23 09:50:26;;;;;;;4.68;1.77;;;;;;;;;;4989853;28;20027;-45
2023/10/23 09:52:56;;;;;;;6.88;3.40;;;;;;;;;;4992579;28;20519;-42
2023/10/23 09:55:26;;;;;;;2.35;2.00;;;;;;;;;;4992811;28;20073;-47
2023/10/23 09:57:53;;;;;;;6.28;4.15;;;;;;;;;;4987966;28;20107;-43
2023/10/23 10:00:19;;;;;;;4.63;2.22;;;;;;;;;;4984968;28;20133;-43
2023/10/23 10:02:55;;;;;;;3.40;3.15;;;;;;;;;;4987224;28;20074;-45
2023/10/23 10:05:42;;;;;;;5.18;3.35;;;;;;;;;;4991358;28;20026;-43
2023/10/23 10:08:11;;;;;;;3.60;0.77;;;;;;;;;;5020335;28;20403;-45
2023/10/23 10:10:36;;;;;;;7.32;3.05;;;;;;;;;;4982395;28;20026;-45
2023/10/23 10:13:03;;;;;;;8.55;3.58;;;;;;;;;;5000788;28;20038;-47
2023/10/23 10:15:30;;;;;;;4.75;2.33;;;;;;;;;;4988744;28;20030;-47
2023/10/23 10:17:55;;;;;;;3.70;2.65;;;;;;;;;;5019404;28;20034;-44
2023/10/23 10:20:22;;;;;;;5.97;1.77;;;;;;;;;;4991595;28;20030;-42
2023/10/23 10:23:11;;;;;;;4.50;3.88;;;;;;;;;;4990965;28;20145;-43
2023/10/23 10:25:41;;;;;;;7.82;3.00;;;;;;;;;;4990518;28;20038;-45
2023/10/23 10:28:08;;;;;;;4.43;1.20;;;;;;;;;;4991174;28;20455;-43
2023/10/23 10:30:50;;;;;;;3.72;2.70;;;;;;;;;;4985714;28;20030;-42
2023/10/23 10:33:25;;;;;;;7.50;2.45;;;;;;;;;;4988054;28;20666;-47
2023/10/23 10:35:55;;;;;;;6.20;2.88;;;;;;;;;;4988853;28;20113;-45
2023/10/23 10:38:22;;;;;;;3.88;2.40;;;;;;;;;;4993373;28;20054;-43
2023/10/23 10:40:59;;;;;;;4.93;1.80;;;;;;;;;;4988654;28;20059;-41
2023/10/23 10:43:37;;;;;;;5.47;2.13;;;;;;;;;;4985615;28;20050;-48
2023/10/23 10:46:14;;;;;;;4.07;2.55;;;;;;;;;;4981895;28;20523;-46
2023/10/23 10:48:59;;;;;;;9.25;3.00;;;;;;;;;;4982862;28;20043;-44
2023/10/23 10:51:26;;;;;;;4.60;1.60;;;;;;;;;;4988734;28;20520;-42
2023/10/23 10:54:10;;;;;;;4.82;3.03;;;;;;;;;;4984874;28;20026;-42
2023/10/23 10:56:36;;;;;;;4.93;1.65;;;;;;;;;;4991750;28;20026;-44
2023/10/23 10:59:03;;;;;;;6.82;1.38;;;;;;;;;;4990652;28;20396;-44
2023/10/23 11:01:28;;;;;;;6.03;2.80;;;;;;;;;;4986995;28;20034;-44
2023/10/23 11:03:54;;;;;;;6.63;2.03;;;;;;;;;;4995615;28;20038;-45
2023/10/23 11:06:19;;;;;;;6.18;2.63;;;;;;;;;;4991150;28;20058;-42
2023/10/23 11:08:48;;;;;;;5.22;2.92;;;;;;;;;;4990934;28;20113;-42
2023/10/23 11:11:13;;;;;;;;;;;;;;;;;;4989544;28;20113;-40
2023/10/23 11:13:40;;;;;;;5.53;4.45;;;;;;;;;;4993941;28;20012;-45
2023/10/23 11:16:06;;;;;;;4.72;1.75;;;;;;;;;;4987451;28;20041;-45
2023/10/23 11:18:31;;;;;;;6.72;2.28;;;;;;;;;;4987520;28;20135;-44
2023/10/23 11:20:59;;;;;;;4.43;2.60;;;;;;;;;;4991082;28;20026;-42
2023/10/23 11:23:24;;;;;;;7.75;2.63;;;;;;;;;;4984442;28;20114;-40
2023/10/23 11:25:51;;;;;;;5.38;1.90;;;;;;;;;;4989768;28;20065;-41
2023/10/23 11:28:19;;;;;;;6.88;2.03;;;;;;;;;;4987394;28;20046;-45
2023/10/23 11:30:46;;;;;;;3.20;1.58;;;;;;;;;;4993306;28;20073;-39
2023/10/23 11:33:12;;;;;;;7.68;3.13;;;;;;;;;;4994154;28;20038;-46
2023/10/23 11:35:40;;;;;;;7.53;2.28;;;;;;;;;;4998727;28;20411;-46
2023/10/23 11:38:05;;;;;;;14.15;4.10;;;;;;;;;;5010773;28;20049;-45
2023/10/23 11:40:34;;;;;;;10.20;3.25;;;;;;;;;;4992621;28;20042;-43
2023/10/23 11:42:59;;;;;;;9.90;2.20;;;;;;;;;;4995657;28;20039;-43
2023/10/23 11:45:24;;;;;;;10.18;3.50;;;;;;;;;;4999304;28;20104;-43
2023/10/23 11:47:53;;;;;;;11.55;3.60;;;;;;;;;;4997889;28;20041;-44
2023/10/23 11:50:19;;;;;;;10.18;3.05;;;;;;;;;;4998269;28;20034;-43
2023/10/23 11:52:47;;;;;;;12.57;3.33;;;;;;;;;;4997452;28;20033;-46
2023/10/23 11:55:14;;;;;;;9.65;3.60;;;;;;;;;;4998608;28;20037;-47
2023/10/23 11:57:41;;;;;;;12.93;6.25;;;;;;;;;;5001577;28;20102;-45
2023/10/23 12:00:11;;;;;;;16.63;3.38;;;;;;;;;;4995015;28;20053;-44
2023/10/23 12:02:39;;;;;;;10.52;3.17;;;;;;;;;;4991509;28;20050;-46
2023/10/23 12:05:06;;;;;;;7.90;2.75;;;;;;;;;;4996459;28;20041;-43
2023/10/23 12:07:32;;;;;;;8.77;3.70;;;;;;;;;;4998400;28;21419;-46
2023/10/23 12:09:57;;;;;;;10.57;3.72;;;;;;;;;;4999128;28;20022;-44
2023/10/23 12:12:22;;;;;;;11.27;3.00;;;;;;;;;;4995248;28;20057;-45
2023/10/23 12:14:48;;;;;;;12.50;4.18;;;;;;;;;;4996964;28;20026;-46
2023/10/23 12:17:13;;;;;;;14.05;4.95;;;;;;;;;;5003942;28;20042;-43
2023/10/23 12:19:39;;;;;;;10.63;4.07;;;;;;;;;;5008569;28;20613;-44
2023/10/23 12:22:04;;;;;;;11.38;3.47;;;;;;;;;;4995555;28;20714;-44
2023/10/23 12:24:30;;;;;;;10.32;3.13;;;;;;;;;;4998086;28;20090;-45
2023/10/23 12:26:55;;;;;;;10.32;2.80;;;;;;;;;;4994621;28;20579;-42
2023/10/23 12:29:22;;;;;;;18.20;4.53;;;;;;;;;;5001011;28;20125;-45
2023/10/23 12:31:47;;;;;;;10.68;4.45;;;;;;;;;;4993172;28;20054;-43
2023/10/23 12:34:13;;;;;;;13.25;4.65;;;;;;;;;;4998709;28;20030;-44
2023/10/23 12:36:38;;;;;;;16.48;3.78;;;;;;;;;;5001830;28;20152;-47
2023/10/23 12:39:06;;;;;;;12.20;3.80;;;;;;;;;;4992927;28;20050;-42
2023/10/23 12:41:31;;;;;;;13.60;5.35;;;;;;;;;;4980206;28;20033;-43
2023/10/23 12:43:59;;;;;;;15.50;5.43;;;;;;;;;;4994920;28;20026;-42
2023/10/23 12:46:24;;;;;;;16.13;2.92;;;;;;;;;;4997175;28;20397;-43
2023/10/23 12:48:50;;;;;;;17.25;3.45;;;;;;;;;;4996803;28;20057;-42
2023/10/23 12:51:15;;;;;;;18.15;4.65;;;;;;;;;;4998036;28;20065;-45
2023/10/23 12:53:40;;;;;;;20.45;7.32;;;;;;;;;;4996305;28;20034;-43
2023/10/23 12:56:06;;;;;;;23.25;6.00;;;;;;;;;;4995328;28;20034;-47
2023/10/23 12:58:33;;;;;;;16.45;4.32;;;;;;;;;;4989293;28;20073;-46
2023/10/23 13:01:00;;;;;;;15.40;3.95;;;;;;;;;;4996797;28;20035;-47
2023/10/23 13:03:25;;;;;;;17.17;3.75;;;;;;;;;;4991904;28;20750;-45
2023/10/23 13:05:51;;;;;;;15.35;5.18;;;;;;;;;;4996373;28;20022;-45
2023/10/23 13:08:16;;;;;;;19.92;4.30;;;;;;;;;;4994352;28;20045;-43
2023/10/23 13:10:41;;;;;;;18.38;4.05;;;;;;;;;;4983718;28;20030;-45
2023/10/23 13:13:07;;;;;;;14.88;5.30;;;;;;;;;;4998916;28;20048;-40
2023/10/23 13:15:32;;;;;;;21.40;5.10;;;;;;;;;;4997071;28;20073;-44
2023/10/23 13:18:00;;;;;;;18.73;5.60;;;;;;;;;;4994928;28;20034;-43
2023/10/23 13:20:25;;;;;;;13.30;5.68;;;;;;;;;;4995004;28;20049;-44
2023/10/23 13:22:51;;;;;;;16.75;5.53;;;;;;;;;;4992563;28;20039;-42
2023/10/23 13:25:17;;;;;;;16.02;5.82;;;;;;;;;;4996258;28;20484;-43
2023/10/23 13:27:42;;;;;;;16.65;4.55;;;;;;;;;;4996926;28;20047;-42
2023/10/23 13:30:09;;;;;;;11.00;3.55;;;;;;;;;;4976270;28;20506;-43
2023/10/23 13:32:35;;;;;;;16.27;5.47;;;;;;;;;;4996654;28;20145;-41
2023/10/23 13:35:01;;;;;;;14.23;4.10;;;;;;;;;;4992533;28;20030;-46
2023/10/23 13:37:26;;;;;;;17.23;5.47;;;;;;;;;;4985664;28;20125;-41
2023/10/23 13:39:52;;;;;;;18.80;4.75;;;;;;;;;;4993872;28;20057;-43
2023/10/23 13:42:17;;;;;;;12.98;3.63;;;;;;;;;;4986784;28;20069;-42
2023/10/23 13:44:43;;;;;;;12.77;4.32;;;;;;;;;;4999017;28;20045;-41
2023/10/23 13:47:08;;;;;;;15.23;5.18;;;;;;;;;;4995596;28;20053;-45
2023/10/23 13:49:34;;;;;;;15.25;4.47;;;;;;;;;;4991606;28;20026;-45
2023/10/23 13:51:59;;;;;;;16.73;3.42;;;;;;;;;;4983030;28;20504;-46
2023/10/23 13:54:24;;;;;;;11.65;3.42;;;;;;;;;;4993634;28;20046;-42
2023/10/23 13:56:50;;;;;;;18.50;3.88;;;;;;;;;;4998223;28;20495;-44
2023/10/23 13:59:15;;;;;;;19.33;3.83;;;;;;;;;;4993499;28;20031;-43
2023/10/23 14:01:40;;;;;;;12.00;3.35;;;;;;;;;;4990892;28;20038;-44
2023/10/23 14:04:06;;;;;;;12.73;3.83;;;;;;;;;;4990000;28;20030;-45
2023/10/23 14:06:31;;;;;;;13.18;5.72;;;;;;;;;;4982314;28;20116;-41
2023/10/23 14:08:57;;;;;;;15.82;4.18;;;;;;;;;;4991571;28;20113;-45
2023/10/23 14:11:23;;;;;;;15.07;6.15;;;;;;;;;;4987941;28;20039;-42
2023/10/23 14:13:48;;;;;;;12.98;4.60;;;;;;;;;;4989476;28;20038;-42
2023/10/23 14:16:14;;;;;;;12.90;4.82;;;;;;;;;;4988838;28;20038;-44
2023/10/23 14:18:40;;;;;;;12.45;4.57;;;;;;;;;;4990340;28;20034;-44
2023/10/23 14:21:05;;;;;;;16.08;5.38;;;;;;;;;;4996493;28;20033;-44
2023/10/23 14:23:31;;;;;;;12.18;3.42;;;;;;;;;;4993735;28;20038;-45
2023/10/23 14:25:56;;;;;;;15.07;4.57;;;;;;;;;;4994791;28;20503;-46
2023/10/23 14:28:22;;;;;;;18.45;4.60;;;;;;;;;;4995322;28;20797;-45
2023/10/23 14:30:49;;;;;;;15.80;5.50;;;;;;;;;;4991263;28;20031;-47
2023/10/23 14:33:14;;;;;;;13.73;5.15;;;;;;;;;;4986918;28;20137;-44
2023/10/23 14:35:41;;;;;;;19.63;6.05;;;;;;;;;;4990418;28;20050;-41